Time;durP1;ratioP1;P1;durP2;ratioP2;P2;SDS_P1;SDS_P2;PMS_P1;PMS_P2;Temp;Humidity;BMP_temperature;BMP_pressure;BME280_temperature;BME280_humidity;BME280_pressure;Samples;Min_cycle;Max_cycle;Signal;HPM_P1;HPM_P2
2023/07/29 00:00:26;;;;;;;11.32;8.27;;;;;;;18.61;100.00;100566.72;5012134;28;20128;-60
2023/07/29 00:02:54;;;;;;;12.77;8.55;;;;;;;18.62;100.00;100560.38;5012154;28;20050;-52
2023/07/29 00:05:23;;;;;;;12.43;8.13;;;;;;;18.52;100.00;100559.69;5008792;28;20126;-59
2023/07/29 00:07:52;;;;;;;11.52;8.02;;;;;;;18.41;100.00;100558.13;5008506;28;20046;-53
2023/07/29 00:10:20;;;;;;;13.10;7.93;;;;;;;18.30;100.00;100561.88;5006121;28;20579;-53
2023/07/29 00:12:49;;;;;;;11.45;8.07;;;;;;;18.21;100.00;100558.31;5008338;28;20450;-59
2023/07/29 00:15:18;;;;;;;10.05;7.40;;;;;;;18.17;100.00;100556.16;5008825;28;20042;-52
2023/07/29 00:17:47;;;;;;;10.82;8.02;;;;;;;18.23;100.00;100556.34;5011057;28;20100;-52
2023/07/29 00:20:16;;;;;;;10.80;8.00;;;;;;;18.28;100.00;100550.56;5008388;28;20038;-59
2023/07/29 00:22:44;;;;;;;10.68;7.07;;;;;;;18.23;100.00;100555.53;5009489;28;20564;-59
2023/07/29 00:25:13;;;;;;;10.93;7.35;;;;;;;18.11;100.00;100554.13;5011560;28;20060;-60
2023/07/29 00:27:41;;;;;;;10.15;7.55;;;;;;;18.18;100.00;100541.84;5011768;28;20440;-53
2023/07/29 00:30:10;;;;;;;11.30;7.82;;;;;;;18.17;100.00;100537.53;5010644;28;20049;-59
2023/07/29 00:32:40;;;;;;;12.88;7.55;;;;;;;18.13;100.00;100530.84;5011406;28;20509;-59
2023/07/29 00:35:09;;;;;;;11.70;7.38;;;;;;;18.12;100.00;100529.16;5011804;28;20049;-59
2023/07/29 00:37:38;;;;;;;11.68;9.05;;;;;;;18.06;100.00;100526.16;5011507;28;20452;-52
2023/07/29 00:40:15;;;;;;;13.13;8.48;;;;;;;17.88;100.00;100518.19;5010146;28;20042;-53
2023/07/29 00:42:44;;;;;;;11.20;8.30;;;;;;;17.88;100.00;100515.50;5007908;28;20053;-53
2023/07/29 00:45:12;;;;;;;12.55;8.63;;;;;;;17.93;100.00;100512.44;5008394;28;20050;-52
2023/07/29 00:47:43;;;;;;;12.80;8.38;;;;;;;17.91;100.00;100511.72;5007883;28;20065;-53
2023/07/29 00:50:13;;;;;;;15.02;8.40;;;;;;;17.88;100.00;100504.88;5008033;28;20501;-52
2023/07/29 00:52:42;;;;;;;13.80;8.75;;;;;;;17.81;100.00;100509.16;5008120;28;20053;-54
2023/07/29 00:55:10;;;;;;;14.00;8.88;;;;;;;17.76;100.00;100505.28;5009480;28;20101;-53
2023/07/29 00:57:40;;;;;;;12.05;8.25;;;;;;;17.73;100.00;100512.59;5008023;28;20046;-53
2023/07/29 01:00:10;;;;;;;13.40;9.13;;;;;;;17.66;100.00;100516.84;5012216;28;20049;-53
2023/07/29 01:02:38;;;;;;;14.52;9.48;;;;;;;17.67;100.00;100521.19;5013680;28;20060;-52
2023/07/29 01:05:09;;;;;;;13.38;9.70;;;;;;;17.59;100.00;100529.09;5011381;28;20054;-52
2023/07/29 01:07:45;;;;;;;15.50;8.57;;;;;;;17.62;100.00;100526.13;5013641;28;20045;-53
2023/07/29 01:10:22;;;;;;;11.93;9.05;;;;;;;17.58;100.00;100538.06;5010523;28;20066;-53
2023/07/29 01:12:59;;;;;;;14.68;9.20;;;;;;;17.56;100.00;100535.56;5012361;28;20050;-52
2023/07/29 01:15:33;;;;;;;11.38;7.85;;;;;;;17.58;100.00;100538.06;5012834;28;20129;-53
2023/07/29 01:18:06;;;;;;;13.55;8.23;;;;;;;17.55;100.00;100541.84;5011857;28;20041;-54
2023/07/29 01:20:41;;;;;;;12.95;8.30;;;;;;;17.61;100.00;100542.25;5010824;28;20100;-54
2023/07/29 01:23:09;;;;;;;12.23;9.00;;;;;;;17.57;100.00;100539.91;5012005;28;20111;-59
2023/07/29 01:25:39;;;;;;;14.70;8.73;;;;;;;17.61;100.00;100539.59;5014276;28;20464;-59
2023/07/29 01:28:08;;;;;;;11.95;8.60;;;;;;;17.62;100.00;100531.44;5013269;28;20048;-59
2023/07/29 01:30:41;;;;;;;13.65;8.82;;;;;;;17.59;100.00;100515.81;5014530;28;20042;-60
2023/07/29 01:33:11;;;;;;;;;;;;;;;17.58;100.00;100512.28;5015083;28;20100;-60
2023/07/29 01:35:46;;;;;;;12.52;8.82;;;;;;;17.61;100.00;100505.03;5014271;28;19925;-60
2023/07/29 01:38:18;;;;;;;11.43;8.65;;;;;;;17.54;100.00;100499.47;5014313;28;20140;-59
2023/07/29 01:40:50;;;;;;;13.40;9.68;;;;;;;17.55;100.00;100495.84;5012014;28;20072;-54
2023/07/29 01:43:23;;;;;;;13.57;8.82;;;;;;;17.54;100.00;100496.81;5011144;28;20046;-53
2023/07/29 01:45:51;;;;;;;13.07;9.38;;;;;;;17.58;100.00;100492.88;5010968;28;20062;-53
2023/07/29 01:48:20;;;;;;;14.68;9.52;;;;;;;17.65;100.00;100495.75;5010271;28;20045;-53
2023/07/29 01:50:48;;;;;;;13.88;9.25;;;;;;;17.66;100.00;100502.75;5010777;28;20042;-54
2023/07/29 01:53:17;;;;;;;13.88;9.43;;;;;;;17.63;100.00;100500.38;5010204;28;20045;-60
2023/07/29 01:55:47;;;;;;;14.07;9.65;;;;;;;17.64;100.00;100504.69;5010252;28;20085;-54
2023/07/29 01:58:15;;;;;;;12.55;9.70;;;;;;;17.59;100.00;100499.84;5010809;28;20501;-54
2023/07/29 02:00:43;;;;;;;15.00;10.05;;;;;;;17.60;100.00;100500.69;5010615;28;20068;-53
2023/07/29 02:03:12;;;;;;;12.75;9.65;;;;;;;17.68;100.00;100498.09;5010689;28;20049;-60
2023/07/29 02:05:41;;;;;;;16.10;10.70;;;;;;;17.57;100.00;100499.16;5010246;28;20054;-54
2023/07/29 02:08:10;;;;;;;14.00;10.10;;;;;;;17.57;100.00;100499.16;5011698;28;20053;-59
2023/07/29 02:10:39;;;;;;;13.82;10.45;;;;;;;17.51;100.00;100502.44;5013005;28;20436;-53
2023/07/29 02:13:09;;;;;;;14.52;10.13;;;;;;;17.55;100.00;100501.16;5013547;28;20050;-53
2023/07/29 02:15:37;;;;;;;18.73;10.48;;;;;;;17.55;100.00;100495.84;5013592;28;20049;-53
2023/07/29 02:18:07;;;;;;;13.23;9.98;;;;;;;17.58;100.00;100490.19;5013532;28;20050;-53
2023/07/29 02:20:35;;;;;;;12.13;8.75;;;;;;;17.69;100.00;100484.63;5011400;28;20050;-60
2023/07/29 02:23:04;;;;;;;13.25;9.07;;;;;;;17.67;100.00;100489.28;5010932;28;20844;-60
2023/07/29 02:25:35;;;;;;;14.38;9.77;;;;;;;17.71;100.00;100487.97;5011153;28;20053;-53
2023/07/29 02:28:04;;;;;;;12.85;9.32;;;;;;;17.65;100.00;100488.59;5010304;28;20042;-53
2023/07/29 02:30:34;;;;;;;12.30;9.40;;;;;;;17.62;100.00;100496.88;5011529;28;20053;-59
2023/07/29 02:33:03;;;;;;;16.73;9.90;;;;;;;17.68;100.00;100498.94;5013223;28;20128;-60
2023/07/29 02:35:31;;;;;;;13.13;9.32;;;;;;;17.68;100.00;100493.63;5013261;28;20093;-60
2023/07/29 02:38:00;;;;;;;13.48;9.75;;;;;;;17.70;100.00;100486.31;5012483;28;20572;-53
2023/07/29 02:40:29;;;;;;;15.13;10.40;;;;;;;17.71;100.00;100493.31;5009286;28;20441;-53
2023/07/29 02:42:57;;;;;;;13.75;10.50;;;;;;;17.71;100.00;100489.78;5011436;28;20038;-53
2023/07/29 02:45:25;;;;;;;13.68;10.25;;;;;;;17.71;100.00;100503.94;5013279;28;20054;-53
2023/07/29 02:47:55;;;;;;;14.50;10.48;;;;;;;17.73;100.00;100499.28;5010295;28;20563;-54
2023/07/29 02:50:24;;;;;;;15.70;11.07;;;;;;;17.76;100.00;100498.13;5009627;28;20053;-54
2023/07/29 02:52:52;;;;;;;16.08;10.63;;;;;;;17.74;100.00;100492.97;5010789;28;20511;-54
2023/07/29 02:55:20;;;;;;;17.90;11.57;;;;;;;17.77;100.00;100478.53;5011235;28;20528;-54
2023/07/29 02:57:49;;;;;;;14.18;11.48;;;;;;;17.77;100.00;100488.34;5009750;28;20133;-52
2023/07/29 03:00:17;;;;;;;18.80;12.10;;;;;;;17.78;100.00;100476.72;5010453;28;20541;-53
2023/07/29 03:02:46;;;;;;;15.98;10.65;;;;;;;17.75;100.00;100477.84;5009823;28;20556;-54
2023/07/29 03:05:16;;;;;;;15.10;10.48;;;;;;;17.79;100.00;100481.03;5010036;28;20045;-53
2023/07/29 03:07:45;;;;;;;16.42;10.75;;;;;;;17.77;100.00;100475.06;5011524;28;20034;-54
2023/07/29 03:10:14;;;;;;;14.30;9.35;;;;;;;17.82;100.00;100481.56;5007196;28;20084;-59
2023/07/29 03:12:42;;;;;;;14.25;9.98;;;;;;;17.84;100.00;100481.41;5009260;28;20394;-53
2023/07/29 03:15:11;;;;;;;12.73;9.90;;;;;;;17.81;100.00;100482.56;5012135;28;20497;-53
2023/07/29 03:17:39;;;;;;;13.30;9.80;;;;;;;17.80;100.00;100485.38;5011984;28;20366;-53
2023/07/29 03:20:09;;;;;;;15.82;10.43;;;;;;;17.83;100.00;100490.38;5009733;28;20092;-59
2023/07/29 03:22:39;;;;;;;12.77;10.05;;;;;;;17.83;100.00;100490.38;5008829;28;20053;-53
2023/07/29 03:25:08;;;;;;;12.27;9.93;;;;;;;17.79;100.00;100489.03;5010125;28;20064;-53
2023/07/29 03:27:36;;;;;;;12.80;9.15;;;;;;;17.81;100.00;100479.91;5009009;28;20488;-54
2023/07/29 03:30:07;;;;;;;13.48;9.25;;;;;;;17.87;100.00;100481.94;5009302;28;20038;-53
2023/07/29 03:32:35;;;;;;;16.80;9.15;;;;;;;17.79;100.00;100478.38;5009110;28;20100;-54
2023/07/29 03:35:04;;;;;;;11.23;7.93;;;;;;;17.82;100.00;100472.75;5009415;28;20050;-54
2023/07/29 03:37:32;;;;;;;13.55;7.90;;;;;;;17.83;100.00;100474.41;5009464;28;20057;-61
2023/07/29 03:40:02;;;;;;;12.07;7.50;;;;;;;17.79;100.00;100473.06;5008066;28;20042;-60
2023/07/29 03:42:32;;;;;;;11.73;7.30;;;;;;;17.74;100.00;100482.34;5012409;28;20104;-54
2023/07/29 03:45:01;;;;;;;12.52;7.03;;;;;;;17.76;100.00;100484.03;5012172;28;20050;-54
2023/07/29 03:47:29;;;;;;;9.52;6.00;;;;;;;17.70;100.00;100475.66;5012250;28;20038;-53
2023/07/29 03:49:57;;;;;;;10.48;5.90;;;;;;;17.74;100.00;100471.72;5010230;28;20050;-53
2023/07/29 03:52:26;;;;;;;9.30;6.25;;;;;;;17.70;100.00;100465.03;5009491;28;20050;-54
2023/07/29 03:54:54;;;;;;;10.13;6.00;;;;;;;17.65;100.00;100469.97;5007583;28;20042;-54
2023/07/29 03:57:24;;;;;;;12.27;5.72;;;;;;;17.67;100.00;100476.00;5009031;28;20200;-53
2023/07/29 03:59:53;;;;;;;9.60;5.00;;;;;;;17.66;100.00;100474.31;5009091;28;20053;-54
2023/07/29 04:02:21;;;;;;;9.20;5.05;;;;;;;17.64;100.00;100484.28;5009385;28;20049;-54
2023/07/29 04:04:50;;;;;;;9.48;5.07;;;;;;;17.63;100.00;100484.41;5011392;28;20129;-53
2023/07/29 04:07:18;;;;;;;8.75;5.18;;;;;;;17.65;100.00;100485.09;5011670;28;20046;-53
2023/07/29 04:09:47;;;;;;;8.73;4.50;;;;;;;17.60;100.00;100476.75;5007805;28;20049;-60
2023/07/29 04:12:15;;;;;;;7.63;4.68;;;;;;;17.63;100.00;100473.78;5009872;28;20045;-53
2023/07/29 04:14:45;;;;;;;7.80;4.32;;;;;;;17.56;100.00;100486.84;5010091;28;20049;-52
2023/07/29 04:17:14;;;;;;;8.98;4.25;;;;;;;17.53;100.00;100490.69;5009401;28;20127;-54
2023/07/29 04:19:42;;;;;;;8.05;3.90;;;;;;;17.40;100.00;100487.56;5008287;28;20440;-53
2023/07/29 04:22:11;;;;;;;7.82;4.00;;;;;;;17.41;100.00;100486.59;5009129;28;20113;-54
2023/07/29 04:24:39;;;;;;;8.73;3.60;;;;;;;17.38;100.00;100481.56;5011971;28;20387;-59
2023/07/29 04:27:07;;;;;;;7.63;3.63;;;;;;;17.36;100.00;100489.69;5010488;28;20058;-53
2023/07/29 04:29:36;;;;;;;6.97;3.78;;;;;;;17.34;100.00;100469.56;5009137;28;20520;-54
2023/07/29 04:32:07;;;;;;;7.20;3.40;;;;;;;17.37;100.00;100480.75;5009289;28;20113;-54
2023/07/29 04:34:35;;;;;;;7.18;3.40;;;;;;;17.30;100.00;100468.19;5013627;28;20080;-52
2023/07/29 04:37:04;;;;;;;6.90;3.30;;;;;;;17.24;100.00;100464.34;5012196;28;20125;-52
2023/07/29 04:39:33;;;;;;;6.95;3.70;;;;;;;17.18;100.00;100459.66;5011061;28;20063;-53
2023/07/29 04:42:01;;;;;;;6.40;3.20;;;;;;;17.15;100.00;100454.63;5012497;28;20038;-53
2023/07/29 04:44:30;;;;;;;6.57;3.03;;;;;;;17.24;100.00;100451.06;5014455;28;20057;-53
2023/07/29 04:46:58;;;;;;;6.10;2.85;;;;;;;17.23;100.00;100454.69;5015028;28;20457;-59
2023/07/29 04:49:28;;;;;;;5.65;2.67;;;;;;;17.25;100.00;100455.38;5011797;28;20037;-60
2023/07/29 04:51:56;;;;;;;8.15;2.90;;;;;;;17.20;100.00;100460.31;5013120;28;20434;-60
2023/07/29 04:54:25;;;;;;;6.90;2.60;;;;;;;17.20;100.00;100478.91;5013977;28;20149;-53
2023/07/29 04:56:54;;;;;;;5.38;2.70;;;;;;;17.15;100.00;100490.00;5013625;28;20053;-60
2023/07/29 04:59:22;;;;;;;6.95;2.65;;;;;;;17.18;100.00;100496.84;5015083;28;20520;-61
2023/07/29 05:01:50;;;;;;;7.13;2.63;;;;;;;17.13;100.00;100509.75;5014833;28;20053;-61
2023/07/29 05:04:22;;;;;;;5.78;2.50;;;;;;;17.06;100.00;100515.66;5014833;28;20409;-61
2023/07/29 05:06:52;;;;;;;6.68;2.60;;;;;;;17.04;100.00;100514.97;5014798;28;20078;-59
2023/07/29 05:09:21;;;;;;;6.35;2.55;;;;;;;17.09;100.00;100516.34;5015108;28;20497;-60
2023/07/29 05:11:49;;;;;;;4.57;2.20;;;;;;;17.06;100.00;100513.00;5014703;28;20128;-59
2023/07/29 05:14:19;;;;;;;5.97;2.50;;;;;;;17.05;100.00;100508.66;5014452;28;20053;-53
2023/07/29 05:16:47;;;;;;;4.50;2.10;;;;;;;17.10;100.00;100504.72;5011770;28;20046;-59
2023/07/29 05:19:16;;;;;;;5.20;2.65;;;;;;;17.09;100.00;100505.72;5012966;28;20068;-59
2023/07/29 05:21:44;;;;;;;4.50;2.42;;;;;;;17.12;100.00;100506.22;5014538;28;20133;-60
2023/07/29 05:24:14;;;;;;;4.95;2.30;;;;;;;17.14;100.00;100514.91;5014516;28;20072;-59
2023/07/29 05:26:43;;;;;;;5.50;2.30;;;;;;;17.23;100.00;100514.00;5014366;28;20114;-53
2023/07/29 05:29:11;;;;;;;4.90;2.10;;;;;;;17.21;100.00;100508.00;5014556;28;20042;-53
2023/07/29 05:31:40;;;;;;;8.48;2.58;;;;;;;17.22;100.00;100504.34;5014478;28;20049;-53
2023/07/29 05:34:08;;;;;;;7.55;2.67;;;;;;;17.20;100.00;100524.91;5012787;28;20057;-60
2023/07/29 05:36:37;;;;;;;5.47;2.53;;;;;;;17.26;100.00;100525.31;5010684;28;20096;-60
2023/07/29 05:39:07;;;;;;;6.57;2.95;;;;;;;17.25;100.00;100521.81;5013953;28;20125;-54
2023/07/29 05:41:36;;;;;;;5.60;2.80;;;;;;;17.25;100.00;100527.13;5014287;28;20050;-53
2023/07/29 05:44:05;;;;;;;7.13;2.85;;;;;;;17.26;100.00;100531.47;5013543;28;20049;-53
2023/07/29 05:46:37;;;;;;;6.53;3.15;;;;;;;17.27;100.00;100530.47;5011862;28;20493;-54
2023/07/29 05:49:06;;;;;;;6.75;3.75;;;;;;;17.27;100.00;100535.78;5010978;28;20057;-53
2023/07/29 05:51:35;;;;;;;7.30;3.58;;;;;;;17.27;100.00;100532.28;5014057;28;20058;-53
2023/07/29 05:54:03;;;;;;;7.25;3.92;;;;;;;17.31;100.00;100534.47;5013483;28;20056;-59
2023/07/29 05:56:32;;;;;;;7.35;3.92;;;;;;;17.39;100.00;100531.91;5010893;28;20500;-60
2023/07/29 05:59:02;;;;;;;6.78;3.72;;;;;;;17.39;100.00;100539.88;5012464;28;20042;-54
2023/07/29 06:01:30;;;;;;;7.20;4.13;;;;;;;17.34;100.00;100539.53;5013976;28;20058;-60
2023/07/29 06:03:58;;;;;;;7.68;4.13;;;;;;;17.38;100.00;100540.03;5013474;28;20085;-54
2023/07/29 06:06:27;;;;;;;9.25;4.35;;;;;;;17.34;100.00;100539.53;5010415;28;20531;-51
2023/07/29 06:08:55;;;;;;;9.48;3.95;;;;;;;17.34;100.00;100538.66;5009147;28;20042;-50
2023/07/29 06:11:24;;;;;;;6.88;3.95;;;;;;;17.44;100.00;100535.94;5009710;28;20536;-54
2023/07/29 06:13:52;;;;;;;9.23;4.55;;;;;;;17.50;100.00;100530.00;5012573;28;20046;-53
2023/07/29 06:16:22;;;;;;;8.07;4.25;;;;;;;17.40;100.00;100541.56;5013581;28;20509;-53
2023/07/29 06:18:52;;;;;;;8.52;4.22;;;;;;;17.43;100.00;100544.91;5013238;28;20049;-54
2023/07/29 06:21:21;;;;;;;8.45;4.50;;;;;;;17.55;100.00;100539.19;5010066;28;20076;-53
2023/07/29 06:23:49;;;;;;;8.70;4.47;;;;;;;17.64;100.00;100540.13;5011404;28;20531;-60
2023/07/29 06:26:18;;;;;;;10.70;4.57;;;;;;;17.80;100.00;100542.06;5013138;28;20062;-60
2023/07/29 06:28:46;;;;;;;8.68;4.55;;;;;;;17.88;100.00;100538.63;5013220;28;20041;-60
2023/07/29 06:31:15;;;;;;;8.55;4.63;;;;;;;17.93;100.00;100538.19;5013525;28;20060;-53
2023/07/29 06:33:44;;;;;;;8.52;4.82;;;;;;;18.10;100.00;100529.31;5011967;28;20046;-59
2023/07/29 06:36:13;;;;;;;8.27;4.60;;;;;;;18.16;100.00;100535.84;5013285;28;20461;-60
2023/07/29 06:38:42;;;;;;;8.43;4.45;;;;;;;18.31;100.00;100534.28;5013000;28;20121;-54
2023/07/29 06:41:10;;;;;;;10.88;4.63;;;;;;;18.50;100.00;100537.69;5013007;28;20046;-53
2023/07/29 06:43:42;;;;;;;7.85;4.07;;;;;;;18.65;100.00;100535.25;5009774;28;20049;-52
2023/07/29 06:46:11;;;;;;;8.00;4.30;;;;;;;18.71;100.00;100546.09;5010196;28;20421;-53
2023/07/29 06:48:39;;;;;;;9.18;4.53;;;;;;;18.78;100.00;100540.97;5009451;28;20054;-60
2023/07/29 06:51:09;;;;;;;7.20;4.38;;;;;;;18.77;100.00;100527.81;5009823;28;20128;-60
2023/07/29 06:53:37;;;;;;;7.88;4.20;;;;;;;18.75;100.00;100533.31;5011876;28;20104;-59
2023/07/29 06:56:06;;;;;;;7.43;4.10;;;;;;;19.01;100.00;100543.91;5011570;28;20089;-60
2023/07/29 06:58:36;;;;;;;8.63;4.22;;;;;;;19.19;100.00;100541.13;5012920;28;20483;-60
2023/07/29 07:01:04;;;;;;;8.82;4.80;;;;;;;19.29;100.00;100535.63;5012732;28;20045;-60
2023/07/29 07:03:33;;;;;;;7.95;4.07;;;;;;;19.27;100.00;100542.97;5011499;28;20416;-59
2023/07/29 07:06:01;;;;;;;9.07;4.40;;;;;;;19.26;100.00;100538.63;5012690;28;20049;-60
2023/07/29 07:08:31;;;;;;;8.27;4.50;;;;;;;19.32;100.00;100542.47;5012658;28;20173;-59
2023/07/29 07:11:00;;;;;;;8.13;3.90;;;;;;;19.44;100.00;100541.16;5011194;28;20077;-52
2023/07/29 07:13:28;;;;;;;8.20;3.67;;;;;;;19.61;100.00;100544.66;5011287;28;20054;-54
2023/07/29 07:15:57;;;;;;;8.85;4.57;;;;;;;19.84;100.00;100544.03;5009484;28;20052;-53
2023/07/29 07:18:25;;;;;;;8.32;4.13;;;;;;;19.95;100.00;100545.50;5011211;28;20049;-60
2023/07/29 07:20:53;;;;;;;7.82;3.97;;;;;;;20.04;100.00;100540.00;5011001;28;20050;-53
2023/07/29 07:23:22;;;;;;;7.47;3.80;;;;;;;19.94;100.00;100555.34;5008436;28;20108;-52
2023/07/29 07:25:53;;;;;;;8.55;4.47;;;;;;;20.13;100.00;100548.00;5009741;28;20420;-52
2023/07/29 07:28:21;;;;;;;7.40;3.90;;;;;;;20.22;100.00;100550.47;5012270;28;20042;-55
2023/07/29 07:30:50;;;;;;;8.02;4.72;;;;;;;20.21;100.00;100551.47;5010157;28;20850;-59
2023/07/29 07:33:18;;;;;;;11.20;4.57;;;;;;;20.27;100.00;100555.28;5009813;28;20089;-60
2023/07/29 07:35:47;;;;;;;7.65;4.28;;;;;;;20.37;100.00;100555.94;5011748;28;20136;-59
2023/07/29 07:38:15;;;;;;;8.82;5.18;;;;;;;20.31;100.00;100561.97;5012219;28;20054;-51
2023/07/29 07:40:56;;;;;;;8.88;5.05;;;;;;;20.40;100.00;100566.28;5010803;28;20050;-53
2023/07/29 07:43:25;;;;;;;9.65;5.15;;;;;;;20.49;100.00;100571.59;5007690;28;20168;-52
2023/07/29 07:45:59;;;;;;;8.20;5.28;;;;;;;20.33;100.00;100578.66;5011395;28;20489;-52
2023/07/29 07:48:28;;;;;;;7.25;5.40;;;;;;;20.26;100.00;100575.84;5012063;28;20052;-53
2023/07/29 07:50:56;;;;;;;9.30;4.80;;;;;;;20.51;100.00;100575.75;5012083;28;20474;-52
2023/07/29 07:53:25;;;;;;;7.25;4.65;;;;;;;20.55;100.00;100568.25;5012023;28;20037;-54
2023/07/29 07:55:55;;;;;;;7.70;4.57;;;;;;;20.67;100.00;100555.34;5011794;28;20048;-53
2023/07/29 07:58:24;;;;;;;7.30;4.38;;;;;;;20.95;100.00;100569.09;5009507;28;20052;-60
2023/07/29 08:00:52;;;;;;;7.03;4.15;;;;;;;21.14;100.00;100570.50;5009046;28;20053;-59
2023/07/29 08:03:20;;;;;;;6.45;3.90;;;;;;;21.30;100.00;100569.59;5011993;28;20046;-52
2023/07/29 08:05:50;;;;;;;6.72;4.40;;;;;;;21.11;100.00;100569.00;5011767;28;20081;-53
2023/07/29 08:08:18;;;;;;;8.57;4.50;;;;;;;21.28;100.00;100564.41;5014671;28;20050;-54
2023/07/29 08:10:46;;;;;;;7.75;4.05;;;;;;;21.13;100.00;100579.53;5013441;28;20404;-55
2023/07/29 08:13:16;;;;;;;7.78;4.10;;;;;;;20.85;100.00;100576.53;5013003;28;20406;-53
2023/07/29 08:15:47;;;;;;;6.75;4.05;;;;;;;21.05;100.00;100582.25;5011724;28;20072;-53
2023/07/29 08:18:16;;;;;;;6.57;3.78;;;;;;;20.85;100.00;100587.22;5014319;28;20049;-55
2023/07/29 08:20:53;;;;;;;6.15;3.83;;;;;;;20.89;100.00;100578.66;5012313;28;20070;-52
2023/07/29 08:23:21;;;;;;;6.75;3.70;;;;;;;20.77;100.00;100580.88;5011511;28;20382;-53
2023/07/29 08:25:56;;;;;;;7.10;3.05;;;;;;;20.82;100.00;100576.84;5012138;28;20065;-54
2023/07/29 08:28:25;;;;;;;12.48;3.78;;;;;;;21.08;100.00;100573.91;5012106;28;20180;-60
2023/07/29 08:30:54;;;;;;;6.50;3.42;;;;;;;21.02;100.00;100570.06;5013625;28;20070;-60
2023/07/29 08:33:22;;;;;;;4.88;3.08;;;;;;;21.07;100.00;100578.41;5013296;28;20052;-54
2023/07/29 08:35:51;;;;;;;6.93;3.30;;;;;;;21.38;100.00;100580.22;5012204;28;20053;-54
2023/07/29 08:38:19;;;;;;;6.80;2.97;;;;;;;21.61;100.00;100579.44;5014146;28;20088;-53
2023/07/29 08:40:55;;;;;;;6.00;2.85;;;;;;;21.56;100.00;100581.81;5011832;28;20450;-53
2023/07/29 08:43:30;;;;;;;5.47;2.60;;;;;;;21.28;100.00;100580.47;5012493;28;20073;-52
2023/07/29 08:45:59;;;;;;;4.40;2.50;;;;;;;21.24;100.00;100587.16;5012333;28;20057;-53
2023/07/29 08:48:34;;;;;;;6.70;2.53;;;;;;;21.27;100.00;100588.66;5011766;28;20054;-54
2023/07/29 08:51:04;;;;;;;6.57;2.97;;;;;;;21.40;100.00;100586.22;5012796;28;20073;-53
2023/07/29 08:53:33;;;;;;;4.53;2.60;;;;;;;21.45;100.00;100591.06;5012685;28;20053;-53
2023/07/29 08:56:02;;;;;;;5.28;3.20;;;;;;;21.57;100.00;100589.66;5012052;28;20057;-54
2023/07/29 08:58:33;;;;;;;6.78;2.92;;;;;;;21.58;100.00;100594.00;5014039;28;20057;-53
2023/07/29 09:01:01;;;;;;;7.43;3.45;;;;;;;21.78;100.00;100588.97;5012515;28;20476;-53
2023/07/29 09:03:30;;;;;;;6.82;2.63;;;;;;;22.08;100.00;100591.72;5012237;28;20141;-53
2023/07/29 09:06:00;;;;;;;5.60;2.50;;;;;;;22.26;100.00;100590.56;5015032;28;20081;-53
2023/07/29 09:08:29;;;;;;;5.35;2.42;;;;;;;22.29;100.00;100595.53;5011996;28;20891;-53
2023/07/29 09:10:57;;;;;;;5.38;2.33;;;;;;;22.36;100.00;100587.66;5012196;28;20054;-59
2023/07/29 09:13:26;;;;;;;5.00;2.30;;;;;;;22.41;100.00;100595.97;5014168;28;20050;-59
2023/07/29 09:15:58;;;;;;;7.18;2.30;;;;;;;22.34;100.00;100595.88;5015242;28;20053;-60
2023/07/29 09:18:28;;;;;;;3.95;2.10;;;;;;;22.30;100.00;100599.91;5012624;28;20053;-59
2023/07/29 09:21:00;;;;;;;5.20;1.95;;;;;;;22.15;100.00;100597.19;5014618;28;20042;-58
2023/07/29 09:23:28;;;;;;;3.70;2.00;;;;;;;22.25;100.00;100596.94;5014484;28;20456;-58
2023/07/29 09:26:02;;;;;;;5.22;1.80;;;;;;;22.51;100.00;100590.34;5014158;28;21021;-58
2023/07/29 09:28:35;;;;;;;4.55;1.85;;;;;;;22.55;100.00;100584.44;5011025;28;20755;-53
2023/07/29 09:31:04;;;;;;;;;;;;;;;22.47;100.00;100581.84;5012197;28;20376;-59
2023/07/29 09:33:36;;;;;;;5.82;2.05;;;;;;;22.65;100.00;100578.78;5011025;28;20044;-54
2023/07/29 09:36:10;;;;;;;4.87;1.50;;;;;;;22.76;100.00;100575.63;5013659;28;20165;-53
2023/07/29 09:38:39;;;;;;;3.83;1.80;;;;;;;22.88;100.00;100581.34;5010554;28;20554;-52
2023/07/29 09:41:13;;;;;;;4.75;1.80;;;;;;;23.01;100.00;100574.47;5012185;28;20472;-53
2023/07/29 09:43:42;;;;;;;3.88;1.55;;;;;;;23.13;100.00;100568.47;5014206;28;20069;-48
2023/07/29 09:46:12;;;;;;;3.70;1.50;;;;;;;23.18;100.00;100567.06;5012627;28;20050;-52
2023/07/29 09:48:42;;;;;;;3.60;1.58;;;;;;;23.17;100.00;100568.09;5010783;28;20053;-52
2023/07/29 09:51:12;;;;;;;3.67;1.73;;;;;;;23.26;100.00;100572.31;5011584;28;20046;-52
2023/07/29 09:53:42;;;;;;;3.78;1.67;;;;;;;23.27;100.00;100573.97;5009733;28;20053;-52
2023/07/29 09:56:15;;;;;;;5.10;1.77;;;;;;;23.41;100.00;100572.25;5011219;28;20050;-52
2023/07/29 09:58:45;;;;;;;3.20;1.90;;;;;;;23.35;100.00;100578.41;5010481;28;20060;-53
2023/07/29 10:01:15;;;;;;;5.35;2.28;;;;;;;23.44;100.00;100578.06;5011363;28;20050;-53
2023/07/29 10:03:45;;;;;;;4.40;1.80;;;;;;;23.56;100.00;100567.66;5013095;28;20133;-52
2023/07/29 10:06:15;;;;;;;2.63;1.50;;;;;;;23.44;100.00;100571.88;5013904;28;20049;-53
2023/07/29 10:08:44;;;;;;;3.35;1.77;;;;;;;23.26;100.00;100575.00;5013701;28;20501;-53
2023/07/29 10:11:13;;;;;;;5.30;1.70;;;;;;;23.54;100.00;100568.88;5012466;28;20444;-51
2023/07/29 10:13:41;;;;;;;3.30;1.60;;;;;;;23.59;100.00;100574.50;5010242;28;20061;-51
2023/07/29 10:16:22;;;;;;;4.10;1.67;;;;;;;23.84;100.00;100574.91;5009493;28;20069;-52
2023/07/29 10:18:53;;;;;;;4.10;2.08;;;;;;;24.02;100.00;100571.78;5010508;28;20054;-52
2023/07/29 10:21:23;;;;;;;5.05;2.13;;;;;;;24.23;100.00;100567.41;5012392;28;20046;-53
2023/07/29 10:23:58;;;;;;;3.80;1.70;;;;;;;24.68;100.00;100562.50;5010479;28;20058;-50
2023/07/29 10:26:29;;;;;;;3.88;1.73;;;;;;;24.51;100.00;100561.97;5010746;28;20072;-54
2023/07/29 10:29:04;;;;;;;3.47;1.77;;;;;;;24.85;100.00;100570.22;5009376;28;20058;-52
2023/07/29 10:31:36;;;;;;;3.38;1.70;;;;;;;24.85;100.00;100559.47;5009307;28;20060;-58
2023/07/29 10:34:05;;;;;;;3.47;1.70;;;;;;;25.09;100.00;100563.50;5011019;28;20052;-58
2023/07/29 10:36:38;;;;;;;3.83;1.80;;;;;;;25.15;100.00;100559.97;5009683;28;20081;-53
2023/07/29 10:39:10;;;;;;;2.75;1.60;;;;;;;25.25;100.00;100564.94;5013065;28;20054;-53
2023/07/29 10:41:58;;;;;;;3.73;1.60;;;;;;;25.64;100.00;100569.59;5012487;28;20077;-53
2023/07/29 10:44:50;;;;;;;3.38;1.63;;;;;;;25.54;100.00;100568.38;5010502;28;20466;-52
2023/07/29 10:47:22;;;;;;;4.32;1.80;;;;;;;25.72;100.00;100568.56;5009154;28;20065;-53
2023/07/29 10:49:54;;;;;;;3.55;1.92;;;;;;;25.64;100.00;100558.00;5009626;28;20049;-51
2023/07/29 10:52:31;;;;;;;5.03;2.15;;;;;;;25.47;100.00;100558.41;5011007;28;20066;-51
2023/07/29 10:55:01;;;;;;;6.65;2.33;;;;;;;25.26;100.00;100559.38;5011431;28;20077;-53
2023/07/29 10:57:34;;;;;;;5.05;2.17;;;;;;;25.45;100.00;100554.25;5010071;28;20058;-53
2023/07/29 11:00:04;;;;;;;3.85;2.05;;;;;;;25.87;100.00;100557.59;5012138;28;20061;-52
2023/07/29 11:02:38;;;;;;;4.03;2.00;;;;;;;25.88;100.00;100553.03;5010253;28;20042;-51
2023/07/29 11:05:09;;;;;;;3.47;1.90;;;;;;;25.81;100.00;100555.75;5008645;28;20074;-52
2023/07/29 11:07:47;;;;;;;4.20;2.10;;;;;;;25.96;100.00;100553.66;5009452;28;20050;-52
2023/07/29 11:10:17;;;;;;;5.40;2.00;;;;;;;25.91;100.00;100558.00;5011448;28;20400;-53
2023/07/29 11:12:47;;;;;;;3.70;2.20;;;;;;;25.77;100.00;100552.63;5012835;28;20049;-52
2023/07/29 11:15:19;;;;;;;3.40;1.90;;;;;;;25.86;100.00;100555.94;5010739;28;20068;-59
2023/07/29 11:17:50;;;;;;;4.18;2.00;;;;;;;25.98;100.00;100548.06;5009830;28;20053;-59
2023/07/29 11:20:20;;;;;;;3.88;1.75;;;;;;;26.24;100.00;100557.16;5011322;28;20065;-59
2023/07/29 11:22:49;;;;;;;2.90;1.58;;;;;;;26.21;100.00;100552.19;5012381;28;20038;-59
2023/07/29 11:25:19;;;;;;;3.15;1.38;;;;;;;26.17;100.00;100553.66;5011746;28;20069;-59